ADDS METAR Data INFO
IDs: Format: Raw Decoded Include TAF

Data at: 0448 UTC 22 Apr 2018

METAR for:KHAO (Hamilton/Butler Cnty, OH, US)
Text:KHAO 220353Z AUTO 07005KT 10SM CLR 10/M03 A3033 RMK AO2 SLP273 T01001033
Temperature: 10.0°C ( 50°F)
Dewpoint: -3.3°C ( 26°F) [RH = 39%]
Pressure (altimeter):30.33 inches Hg (1027.2 mb) [Sea level pressure: 1027.3 mb]
Winds:from the ENE (70 degrees) at 6 MPH (5 knots; 2.6 m/s)
Visibility:10 or more sm (16+ km)
Ceiling:at least 12,000 feet AGL
Clouds:sky clear below 12,000 feet AGL
QC Flag:automated observation with no human augmentation